sensor_id;sensor_type;location;lat;lon;timestamp;temperature;humidity
871;DHT22;422;51.280;7.236;2023-02-15T00:00:19;4.10;1.00
871;DHT22;422;51.280;7.236;2023-02-15T00:02:46;4.00;1.00
871;DHT22;422;51.280;7.236;2023-02-15T00:05:14;4.00;1.00
871;DHT22;422;51.280;7.236;2023-02-15T00:07:41;4.00;1.00
871;DHT22;422;51.280;7.236;2023-02-15T00:10:09;3.90;1.00
871;DHT22;422;51.280;7.236;2023-02-15T00:12:37;3.80;1.00
871;DHT22;422;51.280;7.236;2023-02-15T00:15:05;3.90;1.00
871;DHT22;422;51.280;7.236;2023-02-15T00:17:33;3.90;1.00
871;DHT22;422;51.280;7.236;2023-02-15T00:20:01;3.90;1.00
871;DHT22;422;51.280;7.236;2023-02-15T00:22:28;3.80;1.00
871;DHT22;422;51.280;7.236;2023-02-15T00:24:55;3.80;1.00
871;DHT22;422;51.280;7.236;2023-02-15T00:27:23;3.80;1.00
871;DHT22;422;51.280;7.236;2023-02-15T00:29:50;3.70;1.00
871;DHT22;422;51.280;7.236;2023-02-15T00:32:17;3.80;1.00
871;DHT22;422;51.280;7.236;2023-02-15T00:34:46;3.90;1.00
871;DHT22;422;51.280;7.236;2023-02-15T00:37:13;3.90;1.00
871;DHT22;422;51.280;7.236;2023-02-15T00:39:40;3.90;1.00
871;DHT22;422;51.280;7.236;2023-02-15T00:42:07;3.80;1.00
871;DHT22;422;51.280;7.236;2023-02-15T00:44:34;3.80;1.00
871;DHT22;422;51.280;7.236;2023-02-15T00:47:01;3.70;1.00
871;DHT22;422;51.280;7.236;2023-02-15T00:49:29;3.70;1.00
871;DHT22;422;51.280;7.236;2023-02-15T00:51:57;3.70;1.00
871;DHT22;422;51.280;7.236;2023-02-15T00:54:25;3.60;1.00
871;DHT22;422;51.280;7.236;2023-02-15T00:56:52;3.70;1.00
871;DHT22;422;51.280;7.236;2023-02-15T00:59:20;3.70;1.00
871;DHT22;422;51.280;7.236;2023-02-15T01:01:48;3.80;1.00
871;DHT22;422;51.280;7.236;2023-02-15T01:04:15;3.80;1.00
871;DHT22;422;51.280;7.236;2023-02-15T01:06:42;3.80;1.00
871;DHT22;422;51.280;7.236;2023-02-15T01:09:11;3.80;1.00
871;DHT22;422;51.280;7.236;2023-02-15T01:11:39;3.80;1.00
871;DHT22;422;51.280;7.236;2023-02-15T01:14:06;3.70;1.00
871;DHT22;422;51.280;7.236;2023-02-15T01:16:33;3.80;1.00
871;DHT22;422;51.280;7.236;2023-02-15T01:19:01;3.80;1.00
871;DHT22;422;51.280;7.236;2023-02-15T01:21:29;3.70;1.00
871;DHT22;422;51.280;7.236;2023-02-15T01:23:59;3.60;1.00
871;DHT22;422;51.280;7.236;2023-02-15T01:26:28;3.60;1.00
871;DHT22;422;51.280;7.236;2023-02-15T01:28:56;3.60;1.00
871;DHT22;422;51.280;7.236;2023-02-15T01:31:23;3.50;1.00
871;DHT22;422;51.280;7.236;2023-02-15T01:33:50;3.50;1.00
871;DHT22;422;51.280;7.236;2023-02-15T01:36:18;3.40;1.00
871;DHT22;422;51.280;7.236;2023-02-15T01:38:45;3.50;1.00
871;DHT22;422;51.280;7.236;2023-02-15T01:41:12;3.50;1.00
871;DHT22;422;51.280;7.236;2023-02-15T01:43:55;3.50;1.00
871;DHT22;422;51.280;7.236;2023-02-15T01:46:27;3.40;1.00
871;DHT22;422;51.280;7.236;2023-02-15T01:49:01;3.40;1.00
871;DHT22;422;51.280;7.236;2023-02-15T01:51:31;3.40;1.00
871;DHT22;422;51.280;7.236;2023-02-15T01:54:05;3.30;1.00
871;DHT22;422;51.280;7.236;2023-02-15T01:56:37;3.20;1.00
871;DHT22;422;51.280;7.236;2023-02-15T01:59:11;3.20;1.00
871;DHT22;422;51.280;7.236;2023-02-15T02:01:40;3.10;1.00
871;DHT22;422;51.280;7.236;2023-02-15T02:04:13;3.20;1.00
871;DHT22;422;51.280;7.236;2023-02-15T02:06:42;3.20;1.00
871;DHT22;422;51.280;7.236;2023-02-15T02:09:11;3.10;1.00
871;DHT22;422;51.280;7.236;2023-02-15T02:11:39;3.00;1.00
871;DHT22;422;51.280;7.236;2023-02-15T02:14:08;2.90;1.00
871;DHT22;422;51.280;7.236;2023-02-15T02:16:41;3.00;1.00
871;DHT22;422;51.280;7.236;2023-02-15T02:22:28;2.80;1.00
871;DHT22;422;51.280;7.236;2023-02-15T02:25:32;2.60;1.00
871;DHT22;422;51.280;7.236;2023-02-15T02:28:16;2.70;1.00
871;DHT22;422;51.280;7.236;2023-02-15T02:31:15;2.70;1.00
871;DHT22;422;51.280;7.236;2023-02-15T02:33:56;2.60;1.00
871;DHT22;422;51.280;7.236;2023-02-15T02:36:33;2.50;1.00
871;DHT22;422;51.280;7.236;2023-02-15T02:39:23;2.30;1.00
871;DHT22;422;51.280;7.236;2023-02-15T02:41:58;2.40;1.00
871;DHT22;422;51.280;7.236;2023-02-15T02:44:31;2.40;1.00
871;DHT22;422;51.280;7.236;2023-02-15T02:47:05;2.40;1.00
871;DHT22;422;51.280;7.236;2023-02-15T02:49:38;2.40;1.00
871;DHT22;422;51.280;7.236;2023-02-15T02:52:32;2.50;1.00
871;DHT22;422;51.280;7.236;2023-02-15T02:54:55;2.40;1.00
871;DHT22;422;51.280;7.236;2023-02-15T02:57:24;2.30;1.00
871;DHT22;422;51.280;7.236;2023-02-15T02:59:54;2.30;1.00
871;DHT22;422;51.280;7.236;2023-02-15T03:02:26;2.10;1.00
871;DHT22;422;51.280;7.236;2023-02-15T03:05:00;2.10;1.10
871;DHT22;422;51.280;7.236;2023-02-15T03:07:30;2.00;50.10
871;DHT22;422;51.280;7.236;2023-02-15T03:10:00;2.00;68.30
871;DHT22;422;51.280;7.236;2023-02-15T03:12:32;2.00;99.90
871;DHT22;422;51.280;7.236;2023-02-15T03:15:04;2.00;99.90
871;DHT22;422;51.280;7.236;2023-02-15T03:17:33;2.00;99.90
871;DHT22;422;51.280;7.236;2023-02-15T03:20:06;2.00;99.90
871;DHT22;422;51.280;7.236;2023-02-15T03:22:37;2.00;99.90
871;DHT22;422;51.280;7.236;2023-02-15T03:25:11;2.00;99.90
871;DHT22;422;51.280;7.236;2023-02-15T03:27:44;2.00;99.90
871;DHT22;422;51.280;7.236;2023-02-15T03:30:12;1.90;99.90
871;DHT22;422;51.280;7.236;2023-02-15T03:32:41;1.80;99.90
871;DHT22;422;51.280;7.236;2023-02-15T03:35:11;1.70;99.90
871;DHT22;422;51.280;7.236;2023-02-15T03:37:41;1.70;99.90
871;DHT22;422;51.280;7.236;2023-02-15T03:40:12;1.70;99.90
871;DHT22;422;51.280;7.236;2023-02-15T03:43:04;1.70;99.90
871;DHT22;422;51.280;7.236;2023-02-15T03:45:38;1.80;99.90
871;DHT22;422;51.280;7.236;2023-02-15T03:48:22;1.70;99.90
871;DHT22;422;51.280;7.236;2023-02-15T03:50:54;1.70;99.90
871;DHT22;422;51.280;7.236;2023-02-15T03:53:41;1.60;99.90
871;DHT22;422;51.280;7.236;2023-02-15T03:56:09;1.60;99.90
871;DHT22;422;51.280;7.236;2023-02-15T03:58:36;1.50;99.90
871;DHT22;422;51.280;7.236;2023-02-15T04:01:26;1.50;1.00
871;DHT22;422;51.280;7.236;2023-02-15T04:04:29;1.50;1.00
871;DHT22;422;51.280;7.236;2023-02-15T04:07:00;1.70;1.00
871;DHT22;422;51.280;7.236;2023-02-15T04:09:28;1.60;1.00
871;DHT22;422;51.280;7.236;2023-02-15T04:12:14;1.60;99.90
871;DHT22;422;51.280;7.236;2023-02-15T04:14:42;1.60;99.90
871;DHT22;422;51.280;7.236;2023-02-15T04:17:27;1.60;99.90
871;DHT22;422;51.280;7.236;2023-02-15T04:19:54;1.50;1.00
871;DHT22;422;51.280;7.236;2023-02-15T04:22:40;1.60;1.00
871;DHT22;422;51.280;7.236;2023-02-15T04:25:24;1.50;1.00
871;DHT22;422;51.280;7.236;2023-02-15T04:27:53;1.50;1.00
871;DHT22;422;51.280;7.236;2023-02-15T04:30:23;1.50;1.00
871;DHT22;422;51.280;7.236;2023-02-15T04:32:50;1.50;1.00
871;DHT22;422;51.280;7.236;2023-02-15T04:35:18;1.50;1.00
871;DHT22;422;51.280;7.236;2023-02-15T04:37:47;1.60;1.00
871;DHT22;422;51.280;7.236;2023-02-15T04:40:15;1.60;99.90
871;DHT22;422;51.280;7.236;2023-02-15T04:42:42;1.50;99.90
871;DHT22;422;51.280;7.236;2023-02-15T04:45:10;1.50;99.90
871;DHT22;422;51.280;7.236;2023-02-15T04:47:37;1.40;1.00
871;DHT22;422;51.280;7.236;2023-02-15T04:50:05;1.40;1.00
871;DHT22;422;51.280;7.236;2023-02-15T04:52:33;1.40;1.00
871;DHT22;422;51.280;7.236;2023-02-15T04:55:01;1.30;1.00
871;DHT22;422;51.280;7.236;2023-02-15T04:57:29;1.30;1.00
871;DHT22;422;51.280;7.236;2023-02-15T04:59:56;1.40;1.00
871;DHT22;422;51.280;7.236;2023-02-15T05:02:24;1.40;1.00
871;DHT22;422;51.280;7.236;2023-02-15T05:04:51;1.40;1.00
871;DHT22;422;51.280;7.236;2023-02-15T05:07:19;1.50;1.00
871;DHT22;422;51.280;7.236;2023-02-15T05:09:47;1.50;1.00
871;DHT22;422;51.280;7.236;2023-02-15T05:12:16;1.40;1.00
871;DHT22;422;51.280;7.236;2023-02-15T05:14:44;1.30;1.00
871;DHT22;422;51.280;7.236;2023-02-15T05:17:11;1.30;1.00
871;DHT22;422;51.280;7.236;2023-02-15T05:19:38;1.30;1.00
871;DHT22;422;51.280;7.236;2023-02-15T05:22:05;1.40;1.00
871;DHT22;422;51.280;7.236;2023-02-15T05:24:32;1.30;1.00
871;DHT22;422;51.280;7.236;2023-02-15T05:27:19;1.30;1.00
871;DHT22;422;51.280;7.236;2023-02-15T05:30:05;1.30;1.00
871;DHT22;422;51.280;7.236;2023-02-15T05:32:37;1.50;1.00
871;DHT22;422;51.280;7.236;2023-02-15T05:35:04;1.30;1.00
871;DHT22;422;51.280;7.236;2023-02-15T05:37:33;1.30;1.00
871;DHT22;422;51.280;7.236;2023-02-15T05:40:00;1.30;1.00
871;DHT22;422;51.280;7.236;2023-02-15T05:42:29;1.30;1.00
871;DHT22;422;51.280;7.236;2023-02-15T05:44:56;1.20;1.00
871;DHT22;422;51.280;7.236;2023-02-15T05:47:23;1.20;1.00
871;DHT22;422;51.280;7.236;2023-02-15T05:49:50;1.20;1.00
871;DHT22;422;51.280;7.236;2023-02-15T05:52:17;1.20;1.00
871;DHT22;422;51.280;7.236;2023-02-15T05:54:45;1.20;1.00
871;DHT22;422;51.280;7.236;2023-02-15T05:57:12;1.10;1.00
871;DHT22;422;51.280;7.236;2023-02-15T05:59:41;1.20;1.00
871;DHT22;422;51.280;7.236;2023-02-15T06:02:08;1.20;1.00
871;DHT22;422;51.280;7.236;2023-02-15T06:04:35;1.20;1.00
871;DHT22;422;51.280;7.236;2023-02-15T06:07:03;1.30;1.00
871;DHT22;422;51.280;7.236;2023-02-15T06:09:30;1.10;1.00
871;DHT22;422;51.280;7.236;2023-02-15T06:11:57;1.10;1.00
871;DHT22;422;51.280;7.236;2023-02-15T06:14:25;1.20;1.00
871;DHT22;422;51.280;7.236;2023-02-15T06:16:53;1.30;1.00
871;DHT22;422;51.280;7.236;2023-02-15T06:19:21;1.30;1.00
871;DHT22;422;51.280;7.236;2023-02-15T06:21:48;1.10;1.00
871;DHT22;422;51.280;7.236;2023-02-15T06:24:15;1.10;1.00
871;DHT22;422;51.280;7.236;2023-02-15T06:26:43;1.20;1.00
871;DHT22;422;51.280;7.236;2023-02-15T06:29:10;1.40;1.00
871;DHT22;422;51.280;7.236;2023-02-15T06:31:37;1.40;1.00
871;DHT22;422;51.280;7.236;2023-02-15T06:34:06;1.40;99.90
871;DHT22;422;51.280;7.236;2023-02-15T06:36:33;1.40;99.90
871;DHT22;422;51.280;7.236;2023-02-15T06:39:00;1.40;99.90
871;DHT22;422;51.280;7.236;2023-02-15T06:41:28;1.60;99.90
871;DHT22;422;51.280;7.236;2023-02-15T06:43:56;1.60;99.90
871;DHT22;422;51.280;7.236;2023-02-15T06:46:25;1.60;99.90
871;DHT22;422;51.280;7.236;2023-02-15T06:48:52;1.50;99.90
871;DHT22;422;51.280;7.236;2023-02-15T06:51:20;1.40;99.90
871;DHT22;422;51.280;7.236;2023-02-15T06:53:48;1.40;99.90
871;DHT22;422;51.280;7.236;2023-02-15T06:56:15;1.40;99.90
871;DHT22;422;51.280;7.236;2023-02-15T06:58:42;1.40;99.90
871;DHT22;422;51.280;7.236;2023-02-15T07:01:11;1.30;99.90
871;DHT22;422;51.280;7.236;2023-02-15T07:03:39;1.30;99.90
871;DHT22;422;51.280;7.236;2023-02-15T07:06:06;1.40;99.90
871;DHT22;422;51.280;7.236;2023-02-15T07:08:36;1.50;99.90
871;DHT22;422;51.280;7.236;2023-02-15T07:11:04;1.70;1.00
871;DHT22;422;51.280;7.236;2023-02-15T07:13:49;1.60;99.90
871;DHT22;422;51.280;7.236;2023-02-15T07:16:18;1.70;99.90
871;DHT22;422;51.280;7.236;2023-02-15T07:18:45;1.90;99.90
871;DHT22;422;51.280;7.236;2023-02-15T07:21:13;1.90;99.90
871;DHT22;422;51.280;7.236;2023-02-15T07:23:41;2.00;99.90
871;DHT22;422;51.280;7.236;2023-02-15T07:26:08;2.10;56.00
871;DHT22;422;51.280;7.236;2023-02-15T07:28:36;2.10;19.80
871;DHT22;422;51.280;7.236;2023-02-15T07:31:04;2.20;1.00
871;DHT22;422;51.280;7.236;2023-02-15T07:33:31;2.10;1.00
871;DHT22;422;51.280;7.236;2023-02-15T07:36:00;2.20;1.00
871;DHT22;422;51.280;7.236;2023-02-15T07:38:31;2.30;1.00
871;DHT22;422;51.280;7.236;2023-02-15T07:41:00;2.40;1.00
871;DHT22;422;51.280;7.236;2023-02-15T07:43:28;2.50;1.00
871;DHT22;422;51.280;7.236;2023-02-15T07:45:59;2.60;1.00
871;DHT22;422;51.280;7.236;2023-02-15T07:48:26;2.60;1.00
871;DHT22;422;51.280;7.236;2023-02-15T07:50:53;2.70;1.00
871;DHT22;422;51.280;7.236;2023-02-15T07:53:21;2.70;1.00
871;DHT22;422;51.280;7.236;2023-02-15T07:55:48;2.80;1.00
871;DHT22;422;51.280;7.236;2023-02-15T07:58:18;2.80;1.00
871;DHT22;422;51.280;7.236;2023-02-15T08:00:45;2.90;1.00
871;DHT22;422;51.280;7.236;2023-02-15T08:03:27;3.00;1.00
871;DHT22;422;51.280;7.236;2023-02-15T08:05:57;3.20;1.00
871;DHT22;422;51.280;7.236;2023-02-15T08:08:25;3.40;1.00
871;DHT22;422;51.280;7.236;2023-02-15T08:11:02;3.60;1.00
871;DHT22;422;51.280;7.236;2023-02-15T08:14:01;3.90;1.00
871;DHT22;422;51.280;7.236;2023-02-15T08:16:32;4.30;1.00
871;DHT22;422;51.280;7.236;2023-02-15T08:19:01;4.50;1.00
871;DHT22;422;51.280;7.236;2023-02-15T08:21:29;4.80;1.00
871;DHT22;422;51.280;7.236;2023-02-15T08:23:57;5.10;1.00
871;DHT22;422;51.280;7.236;2023-02-15T08:26:28;5.30;1.00
871;DHT22;422;51.280;7.236;2023-02-15T08:28:58;5.60;1.00
871;DHT22;422;51.280;7.236;2023-02-15T08:31:27;5.80;1.00
871;DHT22;422;51.280;7.236;2023-02-15T08:33:55;6.10;1.00
871;DHT22;422;51.280;7.236;2023-02-15T08:36:24;6.50;1.00
871;DHT22;422;51.280;7.236;2023-02-15T08:38:51;6.80;99.90
871;DHT22;422;51.280;7.236;2023-02-15T08:41:20;7.00;99.90
871;DHT22;422;51.280;7.236;2023-02-15T08:43:49;7.10;99.90
871;DHT22;422;51.280;7.236;2023-02-15T08:46:19;7.20;99.90
871;DHT22;422;51.280;7.236;2023-02-15T08:48:47;7.20;99.90
871;DHT22;422;51.280;7.236;2023-02-15T08:51:16;7.40;99.90
871;DHT22;422;51.280;7.236;2023-02-15T08:53:45;7.50;99.90
871;DHT22;422;51.280;7.236;2023-02-15T08:56:15;7.80;99.90
871;DHT22;422;51.280;7.236;2023-02-15T08:58:42;8.00;99.90
871;DHT22;422;51.280;7.236;2023-02-15T09:01:10;8.20;99.90
871;DHT22;422;51.280;7.236;2023-02-15T09:03:38;8.40;99.90
871;DHT22;422;51.280;7.236;2023-02-15T09:06:07;8.40;99.90
871;DHT22;422;51.280;7.236;2023-02-15T09:08:34;7.90;99.90
871;DHT22;422;51.280;7.236;2023-02-15T09:11:08;7.90;99.90
871;DHT22;422;51.280;7.236;2023-02-15T09:13:36;8.20;99.90
871;DHT22;422;51.280;7.236;2023-02-15T09:16:05;8.90;99.90
871;DHT22;422;51.280;7.236;2023-02-15T09:18:35;9.30;99.90
871;DHT22;422;51.280;7.236;2023-02-15T09:21:09;9.70;99.90
871;DHT22;422;51.280;7.236;2023-02-15T09:23:39;10.00;99.90
871;DHT22;422;51.280;7.236;2023-02-15T09:26:07;10.20;99.90
871;DHT22;422;51.280;7.236;2023-02-15T09:28:35;10.30;99.90
871;DHT22;422;51.280;7.236;2023-02-15T09:31:09;10.50;99.90
871;DHT22;422;51.280;7.236;2023-02-15T09:33:38;10.70;99.90
871;DHT22;422;51.280;7.236;2023-02-15T09:36:15;10.80;99.90
871;DHT22;422;51.280;7.236;2023-02-15T09:38:43;10.90;99.90
871;DHT22;422;51.280;7.236;2023-02-15T09:41:33;11.00;99.90
871;DHT22;422;51.280;7.236;2023-02-15T09:44:14;11.00;99.90
871;DHT22;422;51.280;7.236;2023-02-15T09:47:02;11.10;99.90
871;DHT22;422;51.280;7.236;2023-02-15T09:49:41;11.20;99.90
871;DHT22;422;51.280;7.236;2023-02-15T09:52:30;11.30;99.90
871;DHT22;422;51.280;7.236;2023-02-15T09:55:14;11.30;99.90
871;DHT22;422;51.280;7.236;2023-02-15T09:57:53;11.30;99.90
871;DHT22;422;51.280;7.236;2023-02-15T10:00:26;11.60;99.90
871;DHT22;422;51.280;7.236;2023-02-15T10:03:08;11.80;99.90
871;DHT22;422;51.280;7.236;2023-02-15T10:05:47;11.90;99.90
871;DHT22;422;51.280;7.236;2023-02-15T10:11:15;12.30;99.90
871;DHT22;422;51.280;7.236;2023-02-15T10:14:17;12.50;99.90
871;DHT22;422;51.280;7.236;2023-02-15T10:16:54;12.60;99.90
871;DHT22;422;51.280;7.236;2023-02-15T10:19:27;12.70;99.90
871;DHT22;422;51.280;7.236;2023-02-15T10:22:04;12.80;99.90
871;DHT22;422;51.280;7.236;2023-02-15T10:27:41;13.40;99.90
871;DHT22;422;51.280;7.236;2023-02-15T10:30:12;13.50;99.90
871;DHT22;422;51.280;7.236;2023-02-15T10:32:46;13.60;99.90
871;DHT22;422;51.280;7.236;2023-02-15T10:35:20;13.70;99.90
871;DHT22;422;51.280;7.236;2023-02-15T10:38:10;13.80;99.90
871;DHT22;422;51.280;7.236;2023-02-15T10:40:49;13.70;99.90
871;DHT22;422;51.280;7.236;2023-02-15T10:43:34;13.80;99.90
871;DHT22;422;51.280;7.236;2023-02-15T10:46:11;14.00;99.90
871;DHT22;422;51.280;7.236;2023-02-15T10:49:01;14.10;99.90
871;DHT22;422;51.280;7.236;2023-02-15T10:51:42;14.40;99.90
871;DHT22;422;51.280;7.236;2023-02-15T10:54:21;14.60;99.90
871;DHT22;422;51.280;7.236;2023-02-15T10:57:02;14.30;99.90
871;DHT22;422;51.280;7.236;2023-02-15T10:59:46;14.10;99.90
871;DHT22;422;51.280;7.236;2023-02-15T11:02:20;14.20;99.90
871;DHT22;422;51.280;7.236;2023-02-15T11:04:57;14.10;99.90
871;DHT22;422;51.280;7.236;2023-02-15T11:07:33;14.30;99.90
871;DHT22;422;51.280;7.236;2023-02-15T11:10:11;14.30;99.90
871;DHT22;422;51.280;7.236;2023-02-15T11:12:42;14.20;99.90
871;DHT22;422;51.280;7.236;2023-02-15T11:15:16;14.20;99.90
871;DHT22;422;51.280;7.236;2023-02-15T11:17:51;14.50;99.90
871;DHT22;422;51.280;7.236;2023-02-15T11:20:24;14.50;99.90
871;DHT22;422;51.280;7.236;2023-02-15T11:22:52;14.60;99.90
871;DHT22;422;51.280;7.236;2023-02-15T11:25:24;14.50;99.90
871;DHT22;422;51.280;7.236;2023-02-15T11:27:54;14.60;99.90
871;DHT22;422;51.280;7.236;2023-02-15T11:30:24;14.70;99.90
871;DHT22;422;51.280;7.236;2023-02-15T11:32:53;14.90;99.90
871;DHT22;422;51.280;7.236;2023-02-15T11:35:27;15.20;99.90
871;DHT22;422;51.280;7.236;2023-02-15T11:38:02;15.40;99.90
871;DHT22;422;51.280;7.236;2023-02-15T11:40:35;15.30;99.90
871;DHT22;422;51.280;7.236;2023-02-15T11:43:06;15.40;99.90
871;DHT22;422;51.280;7.236;2023-02-15T11:45:40;15.40;99.90
871;DHT22;422;51.280;7.236;2023-02-15T11:48:10;15.50;99.90
871;DHT22;422;51.280;7.236;2023-02-15T11:50:38;15.50;99.90
871;DHT22;422;51.280;7.236;2023-02-15T11:53:10;15.60;99.90
871;DHT22;422;51.280;7.236;2023-02-15T11:55:38;15.70;99.90
871;DHT22;422;51.280;7.236;2023-02-15T11:58:12;15.60;99.90
871;DHT22;422;51.280;7.236;2023-02-15T12:00:43;15.50;99.90
871;DHT22;422;51.280;7.236;2023-02-15T12:03:16;15.50;99.90
871;DHT22;422;51.280;7.236;2023-02-15T12:05:46;15.60;99.90
871;DHT22;422;51.280;7.236;2023-02-15T12:08:17;15.40;99.90
871;DHT22;422;51.280;7.236;2023-02-15T12:10:57;15.50;99.90
871;DHT22;422;51.280;7.236;2023-02-15T12:13:26;15.70;99.90
871;DHT22;422;51.280;7.236;2023-02-15T12:15:55;15.50;99.90
871;DHT22;422;51.280;7.236;2023-02-15T12:18:34;15.70;99.90
871;DHT22;422;51.280;7.236;2023-02-15T12:21:05;16.10;99.90
871;DHT22;422;51.280;7.236;2023-02-15T12:23:34;16.30;99.90
871;DHT22;422;51.280;7.236;2023-02-15T12:26:06;16.10;99.90
871;DHT22;422;51.280;7.236;2023-02-15T12:28:36;16.10;99.90
871;DHT22;422;51.280;7.236;2023-02-15T12:31:09;16.40;99.90
871;DHT22;422;51.280;7.236;2023-02-15T12:33:41;16.50;99.90
871;DHT22;422;51.280;7.236;2023-02-15T12:36:15;16.50;99.90
871;DHT22;422;51.280;7.236;2023-02-15T12:39:02;16.60;99.90
871;DHT22;422;51.280;7.236;2023-02-15T12:41:30;16.70;99.90
871;DHT22;422;51.280;7.236;2023-02-15T12:44:07;16.40;99.90
871;DHT22;422;51.280;7.236;2023-02-15T12:46:34;16.60;99.90
871;DHT22;422;51.280;7.236;2023-02-15T12:49:19;16.70;99.90
871;DHT22;422;51.280;7.236;2023-02-15T12:51:48;16.80;99.90
871;DHT22;422;51.280;7.236;2023-02-15T12:54:17;16.70;99.90
871;DHT22;422;51.280;7.236;2023-02-15T12:56:44;16.60;99.90
871;DHT22;422;51.280;7.236;2023-02-15T12:59:14;16.60;99.90
871;DHT22;422;51.280;7.236;2023-02-15T13:01:42;16.90;99.90
871;DHT22;422;51.280;7.236;2023-02-15T13:04:20;17.00;99.90
871;DHT22;422;51.280;7.236;2023-02-15T13:06:50;17.20;99.90
871;DHT22;422;51.280;7.236;2023-02-15T13:09:20;17.20;99.90
871;DHT22;422;51.280;7.236;2023-02-15T13:11:51;17.00;99.90
871;DHT22;422;51.280;7.236;2023-02-15T13:14:24;17.10;99.90
871;DHT22;422;51.280;7.236;2023-02-15T13:16:57;17.10;99.90
871;DHT22;422;51.280;7.236;2023-02-15T13:19:31;17.00;99.90
871;DHT22;422;51.280;7.236;2023-02-15T13:22:02;16.70;99.90
871;DHT22;422;51.280;7.236;2023-02-15T13:24:35;16.80;99.90
871;DHT22;422;51.280;7.236;2023-02-15T13:27:03;16.80;99.90
871;DHT22;422;51.280;7.236;2023-02-15T13:29:35;16.80;99.90
871;DHT22;422;51.280;7.236;2023-02-15T13:32:07;16.70;99.90
871;DHT22;422;51.280;7.236;2023-02-15T13:34:39;16.80;99.90
871;DHT22;422;51.280;7.236;2023-02-15T13:37:11;16.90;99.90
871;DHT22;422;51.280;7.236;2023-02-15T13:39:44;17.00;99.90
871;DHT22;422;51.280;7.236;2023-02-15T13:42:18;17.00;99.90
871;DHT22;422;51.280;7.236;2023-02-15T13:45:05;16.80;99.90
871;DHT22;422;51.280;7.236;2023-02-15T13:47:43;16.70;99.90
871;DHT22;422;51.280;7.236;2023-02-15T13:50:29;16.60;99.90
871;DHT22;422;51.280;7.236;2023-02-15T13:55:51;16.30;99.90
871;DHT22;422;51.280;7.236;2023-02-15T14:01:20;16.40;99.90
871;DHT22;422;51.280;7.236;2023-02-15T14:07:40;16.70;99.90
871;DHT22;422;51.280;7.236;2023-02-15T14:10:27;16.80;99.90
871;DHT22;422;51.280;7.236;2023-02-15T14:13:13;16.70;99.90
871;DHT22;422;51.280;7.236;2023-02-15T14:15:50;16.60;99.90
871;DHT22;422;51.280;7.236;2023-02-15T14:18:25;16.20;99.90
871;DHT22;422;51.280;7.236;2023-02-15T14:21:02;16.10;99.90
871;DHT22;422;51.280;7.236;2023-02-15T14:23:40;16.00;99.90
871;DHT22;422;51.280;7.236;2023-02-15T14:26:15;16.00;99.90
871;DHT22;422;51.280;7.236;2023-02-15T14:28:51;15.80;99.90
871;DHT22;422;51.280;7.236;2023-02-15T14:31:28;15.50;99.90
871;DHT22;422;51.280;7.236;2023-02-15T14:33:57;15.40;99.90
871;DHT22;422;51.280;7.236;2023-02-15T14:36:26;15.20;99.90
871;DHT22;422;51.280;7.236;2023-02-15T14:39:02;15.10;99.90
871;DHT22;422;51.280;7.236;2023-02-15T14:41:57;15.00;99.90
871;DHT22;422;51.280;7.236;2023-02-15T14:44:31;14.90;99.90
871;DHT22;422;51.280;7.236;2023-02-15T14:47:07;14.70;99.90
871;DHT22;422;51.280;7.236;2023-02-15T14:49:39;14.50;99.90
871;DHT22;422;51.280;7.236;2023-02-15T14:52:07;14.30;99.90
871;DHT22;422;51.280;7.236;2023-02-15T14:55:04;14.40;99.90
871;DHT22;422;51.280;7.236;2023-02-15T14:57:34;14.40;99.90
871;DHT22;422;51.280;7.236;2023-02-15T15:00:36;14.20;99.90
871;DHT22;422;51.280;7.236;2023-02-15T15:02:54;14.10;99.90
871;DHT22;422;51.280;7.236;2023-02-15T15:05:27;13.90;99.90
871;DHT22;422;51.280;7.236;2023-02-15T15:07:57;13.90;99.90
871;DHT22;422;51.280;7.236;2023-02-15T15:10:40;13.80;99.90
871;DHT22;422;51.280;7.236;2023-02-15T15:13:38;13.70;99.90
871;DHT22;422;51.280;7.236;2023-02-15T15:16:50;13.70;99.90
871;DHT22;422;51.280;7.236;2023-02-15T15:22:35;13.40;99.90
871;DHT22;422;51.280;7.236;2023-02-15T15:25:04;13.30;99.90
871;DHT22;422;51.280;7.236;2023-02-15T15:27:39;13.30;99.90
871;DHT22;422;51.280;7.236;2023-02-15T15:37:20;13.10;99.90
871;DHT22;422;51.280;7.236;2023-02-15T15:40:19;13.00;99.90
871;DHT22;422;51.280;7.236;2023-02-15T15:48:51;12.70;99.90
871;DHT22;422;51.280;7.236;2023-02-15T15:51:23;12.70;99.90
871;DHT22;422;51.280;7.236;2023-02-15T15:53:53;12.60;99.90
871;DHT22;422;51.280;7.236;2023-02-15T15:56:26;12.50;99.90
871;DHT22;422;51.280;7.236;2023-02-15T15:58:59;12.40;99.90
871;DHT22;422;51.280;7.236;2023-02-15T16:01:28;12.20;99.90
871;DHT22;422;51.280;7.236;2023-02-15T16:03:57;12.20;99.90
871;DHT22;422;51.280;7.236;2023-02-15T16:06:30;12.10;99.90
871;DHT22;422;51.280;7.236;2023-02-15T16:08:58;12.10;99.90
871;DHT22;422;51.280;7.236;2023-02-15T16:11:37;11.90;99.90
871;DHT22;422;51.280;7.236;2023-02-15T16:14:11;11.80;99.90
871;DHT22;422;51.280;7.236;2023-02-15T16:16:40;11.80;99.90
871;DHT22;422;51.280;7.236;2023-02-15T16:19:17;11.70;99.90
871;DHT22;422;51.280;7.236;2023-02-15T16:21:47;11.60;99.90
871;DHT22;422;51.280;7.236;2023-02-15T16:24:43;11.50;99.90
871;DHT22;422;51.280;7.236;2023-02-15T16:27:36;11.40;99.90
871;DHT22;422;51.280;7.236;2023-02-15T16:30:26;11.30;99.90
871;DHT22;422;51.280;7.236;2023-02-15T16:33:02;11.20;99.90
871;DHT22;422;51.280;7.236;2023-02-15T16:35:30;11.20;99.90
871;DHT22;422;51.280;7.236;2023-02-15T16:37:57;11.00;99.90
871;DHT22;422;51.280;7.236;2023-02-15T16:40:39;11.00;99.90
871;DHT22;422;51.280;7.236;2023-02-15T16:43:15;10.90;99.90
871;DHT22;422;51.280;7.236;2023-02-15T16:45:43;10.80;99.90
871;DHT22;422;51.280;7.236;2023-02-15T16:48:15;10.70;99.90
871;DHT22;422;51.280;7.236;2023-02-15T16:50:48;10.70;99.90
871;DHT22;422;51.280;7.236;2023-02-15T16:53:20;10.60;99.90
871;DHT22;422;51.280;7.236;2023-02-15T16:55:50;10.50;99.90
871;DHT22;422;51.280;7.236;2023-02-15T16:58:26;10.40;99.90
871;DHT22;422;51.280;7.236;2023-02-15T17:00:57;10.40;99.90
871;DHT22;422;51.280;7.236;2023-02-15T17:03:26;10.30;99.90
871;DHT22;422;51.280;7.236;2023-02-15T17:05:55;10.20;99.90
871;DHT22;422;51.280;7.236;2023-02-15T17:08:28;10.10;99.90
871;DHT22;422;51.280;7.236;2023-02-15T17:11:08;10.10;99.90
871;DHT22;422;51.280;7.236;2023-02-15T17:13:39;10.00;99.90
871;DHT22;422;51.280;7.236;2023-02-15T17:16:28;9.90;99.90
871;DHT22;422;51.280;7.236;2023-02-15T17:18:57;9.80;99.90
871;DHT22;422;51.280;7.236;2023-02-15T17:21:30;9.70;99.90
871;DHT22;422;51.280;7.236;2023-02-15T17:24:00;9.70;99.90
871;DHT22;422;51.280;7.236;2023-02-15T17:26:31;9.60;99.90
871;DHT22;422;51.280;7.236;2023-02-15T17:29:02;9.50;99.90
871;DHT22;422;51.280;7.236;2023-02-15T17:31:36;9.40;99.90
871;DHT22;422;51.280;7.236;2023-02-15T17:34:04;9.40;99.90
871;DHT22;422;51.280;7.236;2023-02-15T17:36:31;9.40;99.90
871;DHT22;422;51.280;7.236;2023-02-15T17:39:02;9.30;99.90
871;DHT22;422;51.280;7.236;2023-02-15T17:41:31;9.20;99.90
871;DHT22;422;51.280;7.236;2023-02-15T17:44:02;9.20;99.90
871;DHT22;422;51.280;7.236;2023-02-15T17:46:33;9.20;99.90
871;DHT22;422;51.280;7.236;2023-02-15T17:49:01;9.10;99.90
871;DHT22;422;51.280;7.236;2023-02-15T17:51:30;9.00;99.90
871;DHT22;422;51.280;7.236;2023-02-15T17:53:57;9.00;99.90
871;DHT22;422;51.280;7.236;2023-02-15T17:56:42;8.90;99.90
871;DHT22;422;51.280;7.236;2023-02-15T17:59:10;8.80;99.90
871;DHT22;422;51.280;7.236;2023-02-15T18:01:43;8.70;99.90